createdAt,value
2018-03-20T00:00:34.386Z,0.29
2018-03-20T00:03:02.542Z,0.36
2018-03-20T00:05:30.671Z,0.35
2018-03-20T00:07:58.835Z,0.37
2018-03-20T00:10:26.977Z,0.35
2018-03-20T00:12:55.117Z,0.26
2018-03-20T00:15:23.273Z,0.18
2018-03-20T00:17:51.404Z,0.22
2018-03-20T00:20:19.531Z,0.10
2018-03-20T00:22:47.662Z,0.18
2018-03-20T00:25:15.832Z,0.16
2018-03-20T00:27:43.968Z,0.16
2018-03-20T00:30:12.115Z,0.16
2018-03-20T00:32:40.262Z,0.11
2018-03-20T00:35:08.398Z,-0.01
2018-03-20T00:37:36.586Z,0.00
2018-03-20T00:40:04.731Z,-0.04
2018-03-20T00:42:32.854Z,0.00
2018-03-20T00:45:01.019Z,0.04
2018-03-20T00:47:29.139Z,0.04
2018-03-20T00:49:57.274Z,0.04
2018-03-20T00:52:25.412Z,0.00
2018-03-20T00:54:53.578Z,-0.02
2018-03-20T00:57:21.732Z,0.01
2018-03-20T00:59:49.876Z,-0.03
2018-03-20T01:02:18.027Z,-0.05
2018-03-20T01:04:46.170Z,-0.07
2018-03-20T01:07:14.383Z,-0.04
2018-03-20T01:09:42.496Z,-0.04
2018-03-20T01:12:10.632Z,-0.08
2018-03-20T01:14:38.765Z,-0.11
2018-03-20T01:17:06.913Z,-0.08
2018-03-20T01:19:35.065Z,-0.13
2018-03-20T01:22:03.197Z,-0.12
2018-03-20T01:24:31.366Z,-0.14
2018-03-20T01:26:59.501Z,-0.22
2018-03-20T01:29:27.651Z,-0.18
2018-03-20T01:31:55.788Z,-0.16
2018-03-20T01:34:23.948Z,-0.08
2018-03-20T01:36:52.066Z,-0.17
2018-03-20T01:39:20.241Z,-0.21
2018-03-20T01:41:48.388Z,-0.17
2018-03-20T01:44:16.535Z,-0.28
2018-03-20T01:46:44.667Z,-0.17
2018-03-20T01:49:12.858Z,-0.20
2018-03-20T01:51:41.043Z,-0.14
2018-03-20T01:54:09.178Z,-0.13
2018-03-20T01:56:37.351Z,-0.13
2018-03-20T01:59:05.503Z,-0.19
2018-03-20T02:01:33.637Z,-0.13
2018-03-20T02:04:01.775Z,-0.02
2018-03-20T02:06:29.931Z,0.01
2018-03-20T02:08:58.077Z,-0.02
2018-03-20T02:11:26.222Z,0.05
2018-03-20T02:13:54.391Z,0.06
2018-03-20T02:16:22.520Z,0.23
2018-03-20T02:18:50.669Z,0.12
2018-03-20T02:21:18.808Z,0.21
2018-03-20T02:23:50.542Z,0.28
2018-03-20T02:26:18.708Z,0.31
2018-03-20T02:28:46.828Z,0.39
2018-03-20T02:31:14.978Z,0.43
2018-03-20T02:33:43.110Z,0.50
2018-03-20T02:36:11.335Z,0.53
2018-03-20T02:38:39.465Z,0.74
2018-03-20T02:41:07.605Z,0.90
2018-03-20T02:43:35.750Z,0.78
2018-03-20T02:46:03.890Z,0.93
2018-03-20T02:48:32.055Z,0.90
2018-03-20T02:51:00.215Z,0.76
2018-03-20T02:53:28.354Z,0.99
2018-03-20T02:55:56.495Z,1.02
2018-03-20T02:58:24.633Z,1.09
2018-03-20T03:00:53.152Z,1.04
2018-03-20T03:03:21.262Z,1.15
2018-03-20T03:05:49.396Z,1.22
2018-03-20T03:08:17.546Z,1.21
2018-03-20T03:10:45.683Z,1.35
2018-03-20T03:13:13.821Z,1.34
2018-03-20T03:15:41.958Z,1.34
2018-03-20T03:18:10.123Z,1.31
2018-03-20T03:20:38.278Z,1.34
2018-03-20T03:23:06.438Z,1.28
2018-03-20T03:25:34.560Z,1.27
2018-03-20T03:28:02.701Z,1.21
2018-03-20T03:30:30.834Z,1.26
2018-03-20T03:32:58.976Z,1.19
2018-03-20T03:35:27.114Z,1.13
2018-03-20T03:37:55.250Z,1.18
2018-03-20T03:40:23.414Z,1.23
2018-03-20T03:42:51.561Z,1.14
2018-03-20T03:45:19.737Z,1.06
2018-03-20T03:47:47.852Z,1.16
2018-03-20T03:50:15.997Z,1.14
2018-03-20T03:52:44.128Z,1.06
2018-03-20T03:55:12.288Z,1.17
2018-03-20T03:57:40.452Z,1.17
2018-03-20T04:00:08.564Z,1.21
2018-03-20T04:02:36.784Z,1.09
2018-03-20T04:05:04.930Z,1.19
2018-03-20T04:07:33.089Z,1.10
2018-03-20T04:10:01.207Z,1.22
2018-03-20T04:12:29.391Z,1.14
2018-03-20T04:14:57.518Z,1.10
2018-03-20T04:17:25.639Z,1.11
2018-03-20T04:19:53.767Z,1.12
2018-03-20T04:22:21.887Z,0.89
2018-03-20T04:24:50.060Z,0.94
2018-03-20T04:27:18.218Z,0.97
2018-03-20T04:29:46.365Z,0.70
2018-03-20T04:32:14.498Z,0.69
2018-03-20T04:34:42.636Z,0.89
2018-03-20T04:37:10.770Z,0.86
2018-03-20T04:39:38.883Z,0.96
2018-03-20T04:42:07.043Z,0.89
2018-03-20T04:44:35.168Z,0.96
2018-03-20T04:47:03.319Z,0.97
2018-03-20T04:49:34.601Z,1.06
2018-03-20T04:52:06.434Z,0.89
2018-03-20T04:54:34.560Z,0.96
2018-03-20T04:57:02.681Z,1.14
2018-03-20T04:59:30.849Z,1.08
2018-03-20T05:01:59.035Z,1.03
2018-03-20T05:04:27.172Z,1.16
2018-03-20T05:06:55.315Z,1.19
2018-03-20T05:09:24.092Z,1.08
2018-03-20T05:11:55.894Z,1.21
2018-03-20T05:14:24.114Z,1.20
2018-03-20T05:16:52.262Z,1.15
2018-03-20T05:22:44.869Z,1.16
2018-03-20T05:25:13.024Z,1.02
2018-03-20T05:27:41.164Z,1.10
2018-03-20T05:30:09.319Z,1.20
2018-03-20T05:32:37.494Z,1.29
2018-03-20T05:35:05.625Z,1.28
2018-03-20T05:37:33.780Z,1.22
2018-03-20T05:40:02.021Z,1.32
2018-03-20T05:42:30.195Z,1.29
2018-03-20T05:44:58.332Z,1.28
2018-03-20T05:47:38.328Z,1.30
2018-03-20T05:53:08.433Z,1.47
2018-03-20T05:55:36.566Z,1.36
2018-03-20T05:58:04.734Z,1.40
2018-03-20T06:00:32.865Z,1.48
2018-03-20T06:03:01.019Z,1.39
2018-03-20T06:05:29.159Z,1.38
2018-03-20T06:07:57.305Z,1.25
2018-03-20T06:10:25.449Z,1.43
2018-03-20T06:12:53.635Z,1.49
2018-03-20T06:15:21.798Z,1.53
2018-03-20T06:17:49.944Z,1.58
2018-03-20T06:20:18.099Z,1.59
2018-03-20T06:22:46.280Z,1.49
2018-03-20T06:25:14.440Z,1.65
2018-03-20T06:27:42.599Z,1.68
2018-03-20T06:30:10.742Z,1.54
2018-03-20T06:32:38.892Z,1.71
2018-03-20T06:35:07.024Z,1.81
2018-03-20T06:37:35.184Z,2.07
2018-03-20T06:40:03.328Z,2.26
2018-03-20T06:42:31.493Z,2.17
2018-03-20T06:44:59.685Z,2.09
2018-03-20T06:47:27.913Z,2.08
2018-03-20T06:49:56.085Z,2.03
2018-03-20T06:52:24.453Z,1.95
2018-03-20T06:54:52.594Z,2.09
2018-03-20T06:57:20.742Z,2.09
2018-03-20T06:59:49.023Z,1.91
2018-03-20T07:02:17.458Z,1.95
2018-03-20T07:04:46.667Z,2.11
2018-03-20T07:07:15.112Z,2.19
2018-03-20T07:09:43.248Z,2.17
2018-03-20T07:12:11.434Z,2.36
2018-03-20T07:14:39.602Z,2.62
2018-03-20T07:17:07.779Z,2.78
2018-03-20T07:19:35.928Z,2.66
2018-03-20T07:22:04.074Z,2.75
2018-03-20T07:24:32.242Z,2.74
2018-03-20T07:27:00.382Z,2.64
2018-03-20T07:29:28.519Z,2.72
2018-03-20T07:31:56.688Z,2.77
2018-03-20T07:34:24.889Z,2.92
2018-03-20T07:36:52.993Z,2.91
2018-03-20T07:39:21.157Z,3.00
2018-03-20T07:41:49.300Z,3.00
2018-03-20T07:44:17.442Z,4.82
2018-03-20T07:46:45.587Z,3.31
2018-03-20T07:49:13.718Z,3.39
2018-03-20T07:51:41.872Z,3.56
2018-03-20T07:54:10.029Z,3.78
2018-03-20T07:56:38.158Z,4.04
2018-03-20T07:59:06.327Z,4.10
2018-03-20T08:01:34.486Z,4.00
2018-03-20T08:04:02.598Z,3.74
2018-03-20T08:06:30.769Z,3.86
2018-03-20T08:08:58.911Z,3.83
2018-03-20T08:11:27.077Z,3.84
2018-03-20T08:13:55.231Z,3.93
2018-03-20T08:16:23.411Z,3.91
2018-03-20T08:18:51.587Z,4.01
2018-03-20T08:21:19.732Z,3.91
2018-03-20T08:23:47.869Z,3.98
2018-03-20T08:26:16.005Z,3.98
2018-03-20T08:28:44.155Z,4.12
2018-03-20T08:31:12.277Z,4.14
2018-03-20T08:33:40.395Z,4.10
2018-03-20T08:36:08.555Z,4.36
2018-03-20T08:38:36.738Z,4.34
2018-03-20T08:41:04.877Z,4.53
2018-03-20T08:43:33.013Z,4.80
2018-03-20T08:46:01.166Z,4.77
2018-03-20T08:48:29.303Z,4.86
2018-03-20T08:50:57.465Z,5.20
2018-03-20T08:53:25.597Z,5.17
2018-03-20T08:55:53.718Z,5.29
2018-03-20T08:58:21.858Z,5.14
2018-03-20T09:00:50.000Z,5.43
2018-03-20T09:03:18.165Z,5.55
2018-03-20T09:05:46.302Z,5.91
2018-03-20T09:08:14.426Z,6.03
2018-03-20T09:10:42.575Z,5.70
2018-03-20T09:13:10.767Z,5.46
2018-03-20T09:15:39.066Z,5.90
2018-03-20T09:18:07.193Z,5.79
2018-03-20T09:20:35.341Z,5.89
2018-03-20T09:23:03.469Z,6.54
2018-03-20T09:25:31.639Z,6.28
2018-03-20T09:27:59.802Z,6.73
2018-03-20T09:30:27.949Z,6.67
2018-03-20T09:32:56.108Z,6.80
2018-03-20T09:35:24.276Z,6.74
2018-03-20T09:37:52.576Z,6.81
2018-03-20T09:40:20.735Z,7.37
2018-03-20T09:42:48.883Z,8.05
2018-03-20T09:45:17.037Z,7.64
2018-03-20T09:47:45.178Z,7.83
2018-03-20T09:50:13.341Z,7.69
2018-03-20T09:52:42.535Z,7.66
2018-03-20T09:55:10.677Z,7.33
2018-03-20T09:57:38.912Z,8.03
2018-03-20T10:00:07.064Z,7.32
2018-03-20T10:02:35.196Z,7.28
2018-03-20T10:05:03.333Z,7.24
2018-03-20T10:07:31.452Z,7.03
2018-03-20T10:09:59.618Z,7.62
2018-03-20T10:12:27.769Z,7.96
2018-03-20T10:14:55.935Z,7.69
2018-03-20T10:17:24.053Z,7.98
2018-03-20T10:19:52.176Z,7.97
2018-03-20T10:22:20.320Z,7.97
2018-03-20T10:24:48.456Z,8.18
2018-03-20T10:27:16.611Z,8.57
2018-03-20T10:29:44.743Z,8.63
2018-03-20T10:32:12.892Z,8.82
2018-03-20T10:34:41.034Z,8.17
2018-03-20T10:37:09.197Z,8.59
2018-03-20T10:39:37.353Z,8.37
2018-03-20T10:42:05.477Z,8.70
2018-03-20T10:44:33.638Z,8.95
2018-03-20T10:47:02.730Z,9.72
2018-03-20T10:49:30.865Z,8.75
2018-03-20T10:51:59.023Z,8.62
2018-03-20T10:54:27.164Z,8.45
2018-03-20T10:56:55.322Z,8.79
2018-03-20T10:59:23.460Z,8.82
2018-03-20T11:01:51.624Z,9.23
2018-03-20T11:04:19.760Z,9.28
2018-03-20T11:06:47.906Z,8.50
2018-03-20T11:09:16.038Z,8.94
2018-03-20T11:11:44.161Z,8.94
2018-03-20T11:14:12.305Z,8.72
2018-03-20T11:16:40.465Z,9.18
2018-03-20T11:19:08.586Z,8.90
2018-03-20T11:21:36.727Z,9.05
2018-03-20T11:24:04.882Z,9.15
2018-03-20T11:26:33.002Z,9.47
2018-03-20T11:29:01.143Z,9.48
2018-03-20T11:31:29.359Z,9.74
2018-03-20T11:33:57.529Z,10.08
2018-03-20T11:36:25.669Z,10.13
2018-03-20T11:38:53.795Z,9.76
2018-03-20T11:41:21.923Z,9.42
2018-03-20T11:43:50.095Z,9.47
2018-03-20T11:46:18.193Z,9.86
2018-03-20T11:48:46.342Z,9.66
2018-03-20T11:51:14.495Z,10.37
2018-03-20T11:53:42.663Z,9.80
2018-03-20T11:56:10.822Z,9.85
2018-03-20T11:58:38.986Z,10.04
2018-03-20T12:01:07.137Z,10.12
2018-03-20T12:03:35.262Z,10.25
2018-03-20T12:06:03.439Z,10.27
2018-03-20T12:08:43.521Z,9.88
2018-03-20T12:11:11.677Z,10.25
2018-03-20T12:13:39.829Z,10.43
2018-03-20T12:16:07.988Z,10.66
2018-03-20T12:18:36.140Z,10.84
2018-03-20T12:21:04.301Z,10.34
2018-03-20T12:23:32.445Z,10.84
2018-03-20T12:26:00.577Z,10.99
2018-03-20T12:28:28.748Z,10.96
2018-03-20T12:30:56.906Z,10.71
2018-03-20T12:33:25.059Z,10.34
2018-03-20T12:35:53.326Z,10.48
2018-03-20T12:38:21.456Z,11.03
2018-03-20T12:40:50.524Z,10.78
2018-03-20T12:43:18.644Z,10.78
2018-03-20T12:45:46.796Z,10.98
2018-03-20T12:48:14.915Z,11.62
2018-03-20T12:50:43.068Z,11.34
2018-03-20T12:53:11.205Z,11.07
2018-03-20T12:55:39.448Z,11.34
2018-03-20T12:58:07.565Z,11.16
2018-03-20T13:00:35.732Z,11.10
2018-03-20T13:03:03.860Z,11.03
2018-03-20T13:05:32.003Z,10.66
2018-03-20T13:08:00.162Z,11.32
2018-03-20T13:10:28.303Z,10.95
2018-03-20T13:12:56.439Z,10.60
2018-03-20T13:15:24.589Z,10.81
2018-03-20T13:17:52.747Z,10.96
2018-03-20T13:20:21.056Z,10.96
2018-03-20T13:22:49.181Z,10.30
2018-03-20T13:25:17.320Z,10.59
2018-03-20T13:27:45.462Z,11.11
2018-03-20T13:30:13.610Z,10.54
2018-03-20T13:32:41.754Z,10.29
2018-03-20T13:35:09.913Z,10.21
2018-03-20T13:37:38.091Z,9.97
2018-03-20T13:40:06.276Z,10.24
2018-03-20T13:42:34.441Z,10.22
2018-03-20T13:45:02.583Z,10.15
2018-03-20T13:47:30.696Z,10.13
2018-03-20T13:49:58.866Z,10.15
2018-03-20T13:52:27.013Z,10.20
2018-03-20T13:54:55.179Z,10.13
2018-03-20T13:57:23.330Z,9.99
2018-03-20T13:59:51.474Z,10.00
2018-03-20T14:02:19.624Z,10.07
2018-03-20T14:04:47.765Z,9.90
2018-03-20T14:07:15.902Z,10.19
2018-03-20T14:09:44.052Z,10.16
2018-03-20T14:12:12.216Z,9.98
2018-03-20T14:14:40.390Z,9.99
2018-03-20T14:17:08.492Z,9.94
2018-03-20T14:19:36.652Z,9.95
2018-03-20T14:22:04.801Z,9.91
2018-03-20T14:24:32.941Z,9.76
2018-03-20T14:27:01.088Z,9.96
2018-03-20T14:29:29.252Z,10.04
2018-03-20T14:31:57.393Z,10.00
2018-03-20T14:34:25.542Z,9.80
2018-03-20T14:36:53.709Z,9.63
2018-03-20T14:39:22.328Z,9.79
2018-03-20T14:41:50.493Z,9.98
2018-03-20T14:44:18.652Z,9.86
2018-03-20T14:46:46.804Z,9.74
2018-03-20T14:49:14.938Z,9.80
2018-03-20T14:51:43.090Z,9.51
2018-03-20T14:54:11.236Z,9.65
2018-03-20T14:56:39.370Z,9.84
2018-03-20T14:59:07.515Z,9.78
2018-03-20T15:01:35.650Z,9.77
2018-03-20T15:04:03.968Z,9.48
2018-03-20T15:06:32.426Z,9.40
2018-03-20T15:09:00.830Z,9.63
2018-03-20T15:11:29.089Z,9.41
2018-03-20T15:13:57.232Z,9.74
2018-03-20T15:16:25.366Z,9.74
2018-03-20T15:18:53.529Z,9.67
2018-03-20T15:21:21.668Z,9.42
2018-03-20T15:23:49.838Z,9.57
2018-03-20T15:26:18.208Z,9.61
2018-03-20T15:28:46.767Z,9.64
2018-03-20T15:31:14.916Z,9.63
2018-03-20T15:33:43.060Z,9.46
2018-03-20T15:36:11.220Z,9.43
2018-03-20T15:38:39.372Z,9.38
2018-03-20T15:41:10.685Z,9.42
2018-03-20T15:43:38.863Z,9.45
2018-03-20T15:46:06.980Z,9.17
2018-03-20T15:48:35.122Z,9.30
2018-03-20T15:51:03.291Z,9.41
2018-03-20T15:53:31.430Z,9.34
2018-03-20T15:55:59.562Z,9.16
2018-03-20T15:58:27.686Z,9.30
2018-03-20T16:00:55.829Z,9.16
2018-03-20T16:03:23.967Z,9.21
2018-03-20T16:05:52.107Z,9.18
2018-03-20T16:08:20.232Z,8.93
2018-03-20T16:10:48.494Z,9.11
2018-03-20T16:13:16.645Z,9.24
2018-03-20T16:15:44.779Z,9.08
2018-03-20T16:18:12.955Z,9.07
2018-03-20T16:20:41.158Z,8.85
2018-03-20T16:23:09.329Z,8.78
2018-03-20T16:25:37.451Z,8.80
2018-03-20T16:28:05.610Z,8.68
2018-03-20T16:30:33.744Z,8.74
2018-03-20T16:33:01.974Z,8.67
2018-03-20T16:35:30.102Z,8.69
2018-03-20T16:37:58.321Z,8.73
2018-03-20T16:40:26.468Z,8.75
2018-03-20T16:42:54.588Z,8.70
2018-03-20T16:45:22.739Z,8.64
2018-03-20T16:47:50.882Z,8.62
2018-03-20T16:50:19.049Z,8.52
2018-03-20T16:52:47.348Z,8.57
2018-03-20T16:55:16.582Z,8.58
2018-03-20T16:57:44.884Z,8.60
2018-03-20T17:00:13.391Z,8.47
2018-03-20T17:02:41.614Z,8.41
2018-03-20T17:05:09.742Z,8.39
2018-03-20T17:07:38.068Z,8.41
2018-03-20T17:10:06.206Z,8.27
2018-03-20T17:12:34.744Z,8.41
2018-03-20T17:15:02.983Z,8.23
2018-03-20T17:17:31.189Z,8.07
2018-03-20T17:20:01.112Z,8.15
2018-03-20T17:22:29.351Z,8.09
2018-03-20T17:24:57.594Z,8.06
2018-03-20T17:27:25.756Z,7.96
2018-03-20T17:29:53.891Z,8.08
2018-03-20T17:32:22.042Z,7.95
2018-03-20T17:34:50.196Z,7.98
2018-03-20T17:37:18.326Z,7.88
2018-03-20T17:39:46.460Z,7.84
2018-03-20T17:42:14.606Z,7.77
2018-03-20T17:44:42.793Z,7.72
2018-03-20T17:47:10.957Z,7.59
2018-03-20T17:49:39.085Z,7.65
2018-03-20T17:52:07.237Z,7.59
2018-03-20T17:54:35.369Z,7.54
2018-03-20T17:57:03.504Z,7.46
2018-03-20T17:59:31.640Z,7.42
2018-03-20T18:01:59.775Z,7.47
2018-03-20T18:04:27.939Z,7.50
2018-03-20T18:06:56.051Z,7.38
2018-03-20T18:09:24.226Z,7.35
2018-03-20T18:11:52.450Z,7.27
2018-03-20T18:14:20.607Z,7.22
2018-03-20T18:16:48.737Z,7.18
2018-03-20T18:19:16.884Z,7.25
2018-03-20T18:21:45.198Z,7.18
2018-03-20T18:24:14.293Z,7.04
2018-03-20T18:26:42.498Z,7.09
2018-03-20T18:29:10.618Z,7.05
2018-03-20T18:31:38.793Z,6.90
2018-03-20T18:34:06.920Z,6.95
2018-03-20T18:36:35.051Z,6.83
2018-03-20T18:39:03.195Z,6.85
2018-03-20T18:41:31.471Z,6.75
2018-03-20T18:43:59.600Z,6.75
2018-03-20T18:46:27.747Z,6.65
2018-03-20T18:48:55.886Z,6.60
2018-03-20T18:51:24.028Z,6.68
2018-03-20T18:53:52.151Z,6.59
2018-03-20T18:56:20.295Z,6.60
2018-03-20T18:58:48.510Z,6.51
2018-03-20T19:01:16.667Z,6.44
2018-03-20T19:03:44.807Z,6.29
2018-03-20T19:06:12.929Z,6.41
2018-03-20T19:08:41.056Z,6.24
2018-03-20T19:11:09.213Z,6.42
2018-03-20T19:13:37.358Z,6.35
2018-03-20T19:16:05.507Z,6.36
2018-03-20T19:18:33.653Z,6.37
2018-03-20T19:21:01.787Z,6.17
2018-03-20T19:23:29.930Z,6.19
2018-03-20T19:25:58.057Z,6.18
2018-03-20T19:28:26.202Z,6.05
2018-03-20T19:30:55.279Z,6.15
2018-03-20T19:33:23.420Z,5.92
2018-03-20T19:35:51.564Z,5.83
2018-03-20T19:38:19.699Z,5.97
2018-03-20T19:40:48.013Z,5.97
2018-03-20T19:43:16.138Z,5.86
2018-03-20T19:45:44.309Z,5.91
2018-03-20T19:48:12.420Z,5.70
2018-03-20T19:50:40.600Z,5.63
2018-03-20T19:53:10.730Z,5.79
2018-03-20T19:55:39.029Z,5.89
2018-03-20T19:58:07.167Z,5.76
2018-03-20T20:00:35.315Z,5.76
2018-03-20T20:03:06.355Z,5.66
2018-03-20T20:05:34.496Z,5.73
2018-03-20T20:08:02.637Z,5.67
2018-03-20T20:10:30.787Z,5.51
2018-03-20T20:12:58.917Z,5.63
2018-03-20T20:15:27.039Z,5.44
2018-03-20T20:17:55.155Z,5.51
2018-03-20T20:20:23.332Z,5.53
2018-03-20T20:22:51.484Z,5.63
2018-03-20T20:25:19.629Z,5.45
2018-03-20T20:27:47.813Z,5.31
2018-03-20T20:30:16.211Z,5.25
2018-03-20T20:32:44.594Z,5.29
2018-03-20T20:35:12.992Z,5.18
2018-03-20T20:37:41.244Z,5.16
2018-03-20T20:40:09.364Z,5.19
2018-03-20T20:42:37.554Z,5.21
2018-03-20T20:45:05.800Z,5.09
2018-03-20T20:47:34.030Z,4.87
2018-03-20T20:50:02.393Z,4.97
2018-03-20T20:52:30.674Z,4.97
2018-03-20T20:54:59.059Z,4.87
2018-03-20T20:57:30.833Z,4.88
2018-03-20T20:59:58.951Z,4.89
2018-03-20T21:02:27.136Z,4.79
2018-03-20T21:04:55.304Z,4.81
2018-03-20T21:07:23.627Z,4.92
2018-03-20T21:09:51.866Z,4.76
2018-03-20T21:12:20.114Z,4.78
2018-03-20T21:14:48.309Z,4.63
2018-03-20T21:17:16.988Z,4.61
2018-03-20T21:19:45.131Z,4.52
2018-03-20T21:22:13.525Z,4.54
2018-03-20T21:24:41.667Z,4.61
2018-03-20T21:27:09.974Z,4.63
2018-03-20T21:29:38.349Z,4.56
2018-03-20T21:32:06.766Z,4.61
2018-03-20T21:34:35.108Z,4.42
2018-03-20T21:37:03.690Z,4.49
2018-03-20T21:39:31.835Z,4.51
2018-03-20T21:42:00.143Z,4.38
2018-03-20T21:44:28.301Z,4.41
2018-03-20T21:46:56.802Z,4.17
2018-03-20T21:49:25.020Z,4.03
2018-03-20T21:51:53.349Z,4.04
2018-03-20T21:54:21.734Z,4.07
2018-03-20T21:56:49.887Z,4.11
2018-03-20T21:59:18.151Z,4.06
2018-03-20T22:01:46.549Z,3.95
2018-03-20T22:04:15.039Z,3.87
2018-03-20T22:06:43.523Z,3.69
2018-03-20T22:09:11.706Z,3.70
2018-03-20T22:11:40.027Z,3.54
2018-03-20T22:14:08.177Z,3.56
2018-03-20T22:16:36.523Z,3.53
2018-03-20T22:19:04.647Z,3.52
2018-03-20T22:21:32.918Z,3.43
2018-03-20T22:24:01.084Z,3.37
2018-03-20T22:26:29.455Z,3.34
2018-03-20T22:28:57.596Z,3.38
2018-03-20T22:31:25.873Z,3.27
2018-03-20T22:33:54.221Z,3.35
2018-03-20T22:36:22.636Z,3.32
2018-03-20T22:38:51.298Z,3.19
2018-03-20T22:41:19.790Z,3.15
2018-03-20T22:43:47.910Z,3.13
2018-03-20T22:46:16.354Z,3.11
2018-03-20T22:48:44.631Z,3.07
2018-03-20T22:51:12.906Z,2.99
2018-03-20T22:53:41.084Z,2.92
2018-03-20T22:56:09.254Z,2.99
2018-03-20T22:58:37.786Z,2.88
2018-03-20T23:01:06.085Z,2.88
2018-03-20T23:03:34.392Z,2.95
2018-03-20T23:06:02.768Z,2.90
2018-03-20T23:08:30.981Z,2.83
2018-03-20T23:10:59.320Z,2.82
2018-03-20T23:13:27.801Z,2.76
2018-03-20T23:15:56.238Z,2.71
2018-03-20T23:18:24.664Z,2.73
2018-03-20T23:20:53.412Z,2.79
2018-03-20T23:23:21.722Z,2.68
2018-03-20T23:25:50.001Z,2.60
2018-03-20T23:28:18.203Z,2.60
2018-03-20T23:30:46.403Z,2.58
2018-03-20T23:33:14.678Z,2.56
2018-03-20T23:35:42.918Z,2.50
2018-03-20T23:38:12.124Z,2.52
2018-03-20T23:43:31.211Z,2.50
2018-03-20T23:45:59.375Z,2.44
2018-03-20T23:48:27.599Z,2.45
2018-03-20T23:50:55.744Z,2.41
2018-03-20T23:53:24.078Z,2.42
2018-03-20T23:55:52.460Z,2.47
2018-03-20T23:58:20.846Z,2.49
